Time;durP1;ratioP1;P1;durP2;ratioP2;P2;SDS_P1;SDS_P2;PMS_P1;PMS_P2;Temp;Humidity;BMP_temperature;BMP_pressure;BME280_temperature;BME280_humidity;BME280_pressure;Samples;Min_cycle;Max_cycle;Signal;HPM_P1;HPM_P2
2023/05/26 00:01:32;;;;;;;8.20;6.43;;;11.40;99.90;;;-141.84;72.18;20084.16;5029853;28;20297;-77
2023/05/26 00:04:01;;;;;;;7.93;6.03;;;11.40;99.90;;;-141.84;72.40;20059.75;5031348;28;20292;-76
2023/05/26 00:06:31;;;;;;;10.47;6.40;;;11.40;99.90;;;-141.84;73.23;20045.53;5031102;28;20256;-77
2023/05/26 00:08:59;;;;;;;8.63;6.03;;;11.40;99.90;;;-141.84;72.90;20029.28;5030307;28;20198;-76
2023/05/26 00:11:29;;;;;;;8.57;6.27;;;11.40;99.90;;;-141.84;72.94;20065.84;5031154;28;20205;-76
2023/05/26 00:13:57;;;;;;;8.27;6.10;;;11.40;99.90;;;-141.84;73.24;20039.44;5031379;28;20315;-76
2023/05/26 00:16:25;;;;;;;7.67;5.90;;;11.30;99.90;;;-141.84;73.47;20061.78;5031054;28;20280;-76
2023/05/26 00:18:53;;;;;;;8.57;6.20;;;11.30;99.90;;;-141.84;73.15;20061.78;5031278;28;20202;-77
2023/05/26 00:21:22;;;;;;;8.33;5.63;;;11.30;99.90;;;-141.84;73.62;20057.72;5031020;28;20677;-76
2023/05/26 00:23:50;;;;;;;7.63;6.30;;;11.40;99.90;;;-141.84;73.05;20037.41;5030891;28;20603;-76
2023/05/26 00:26:18;;;;;;;9.63;6.50;;;11.40;99.90;;;-141.84;73.45;20069.94;5030900;28;20756;-75
2023/05/26 00:28:48;;;;;;;10.27;6.47;;;11.40;99.90;;;-141.84;73.93;20021.16;5031090;28;20681;-76
2023/05/26 00:31:16;;;;;;;9.47;6.80;;;11.30;99.90;;;-141.84;73.48;20019.13;4996271;28;20280;-77
2023/05/26 00:33:44;;;;;;;9.10;6.30;;;11.40;99.90;;;-141.84;74.14;20043.50;5033535;28;20230;-75
2023/05/26 00:36:13;;;;;;;10.47;6.47;;;11.30;99.90;;;-141.84;74.12;19998.78;5031096;28;20709;-75
2023/05/26 00:38:41;;;;;;;11.00;6.67;;;11.30;99.90;;;-141.84;74.39;20023.19;5031265;28;20614;-75
2023/05/26 00:41:09;;;;;;;9.27;7.40;;;11.30;99.90;;;-141.84;74.16;20049.59;4995854;28;20734;-76
2023/05/26 00:43:37;;;;;;;7.37;6.10;;;11.20;99.90;;;-141.84;73.64;20025.22;5031184;28;20230;-76
2023/05/26 00:46:07;;;;;;;11.27;6.87;;;11.30;99.90;;;-141.84;73.53;20049.59;5030376;28;20637;-77
2023/05/26 00:48:36;;;;;;;12.20;7.50;;;11.30;99.90;;;-141.84;73.50;20037.41;5031046;28;20294;-76
2023/05/26 00:51:05;;;;;;;9.73;6.47;;;11.30;99.90;;;-141.84;73.72;20045.53;5012224;28;20732;-77
2023/05/26 00:53:34;;;;;;;9.23;6.90;;;11.30;99.90;;;-141.84;74.24;20025.22;5031105;28;20244;-76
2023/05/26 00:56:02;;;;;;;9.70;7.07;;;11.20;99.90;;;-141.84;74.09;20039.44;5030589;28;20817;-77
2023/05/26 00:58:30;;;;;;;10.90;7.20;;;11.20;99.90;;;-141.84;74.27;19990.66;5030836;28;20209;-75
2023/05/26 01:00:59;;;;;;;7.80;6.67;;;11.20;99.90;;;-141.84;74.38;20023.19;5044005;28;20232;-75
2023/05/26 01:03:29;;;;;;;8.20;6.17;;;11.20;99.90;;;-141.84;74.40;19984.56;5050539;28;20689;-76
2023/05/26 01:05:58;;;;;;;10.30;7.10;;;11.10;99.90;;;-141.84;75.01;20025.22;5050362;28;20177;-76
2023/05/26 01:08:26;;;;;;;8.53;6.37;;;11.10;99.90;;;-141.84;75.03;20035.38;5035972;28;20297;-76
2023/05/26 01:11:03;;;;;;;9.77;6.80;;;11.10;99.90;;;-141.84;74.96;19992.69;5030726;28;20206;-74
2023/05/26 01:13:47;;;;;;;10.13;6.80;;;11.10;99.90;;;-141.84;74.98;20037.41;5030871;28;20536;-76
2023/05/26 01:16:18;;;;;;;10.00;6.53;;;11.00;99.90;;;-141.84;75.17;19962.19;5030499;28;20206;-76
2023/05/26 01:18:58;;;;;;;9.97;6.27;;;11.00;99.90;;;-141.84;74.87;20000.81;5030650;28;20190;-77
2023/05/26 01:21:29;;;;;;;9.83;6.60;;;11.10;99.90;;;-141.84;74.46;19988.63;5033320;28;20209;-74
2023/05/26 01:24:27;;;;;;;7.53;6.47;;;11.10;99.90;;;-141.84;74.46;19978.47;5034490;28;20212;-75
2023/05/26 01:27:09;;;;;;;9.97;6.47;;;11.10;99.90;;;-141.84;74.21;19998.78;5034573;28;20183;-75
2023/05/26 01:29:40;;;;;;;10.83;7.00;;;11.10;99.90;;;-141.84;74.95;20008.94;5015333;28;20233;-75
2023/05/26 01:32:11;;;;;;;10.17;6.80;;;11.00;99.90;;;-141.84;74.41;19994.72;5034028;28;20199;-75
2023/05/26 01:34:39;;;;;;;9.33;7.30;;;11.00;99.90;;;-141.84;74.43;19966.28;5034313;28;20294;-76
2023/05/26 01:37:08;;;;;;;11.83;7.13;;;11.00;99.90;;;-141.84;75.02;19939.84;5033781;28;20218;-76
2023/05/26 01:39:37;;;;;;;8.40;6.93;;;11.00;99.90;;;-141.84;74.96;19982.53;5034563;28;20204;-76
2023/05/26 01:42:15;;;;;;;8.43;7.53;;;11.00;99.90;;;-141.84;75.41;19976.44;5034293;28;20284;-76
2023/05/26 01:45:07;;;;;;;11.80;7.53;;;10.90;99.90;;;-141.84;74.49;19984.56;5034001;28;20235;-75
2023/05/26 01:47:38;;;;;;;9.73;7.77;;;11.00;99.90;;;-141.84;75.11;19978.47;5034082;28;20193;-76
2023/05/26 01:50:09;;;;;;;9.33;7.33;;;10.90;99.90;;;-141.84;74.60;19982.53;5034065;28;20194;-76
2023/05/26 01:52:44;;;;;;;9.53;8.47;;;11.00;99.90;;;-141.84;73.39;20008.94;5033957;28;20213;-75
2023/05/26 01:55:15;;;;;;;11.17;8.03;;;11.10;99.90;;;-141.84;73.63;20043.50;5034283;28;20221;-77
2023/05/26 01:57:45;;;;;;;10.97;7.87;;;11.10;99.90;;;-141.84;73.34;20031.31;5033520;28;20698;-77
2023/05/26 02:00:15;;;;;;;9.90;7.33;;;11.10;99.90;;;-141.84;73.81;20004.88;5033458;28;20248;-76
2023/05/26 02:02:43;;;;;;;8.47;6.97;;;11.20;99.90;;;-141.84;74.31;19996.75;5033704;28;20190;-76
2023/05/26 02:05:12;;;;;;;10.83;6.93;;;11.20;99.90;;;-141.84;74.40;19966.28;5033592;28;20300;-78
2023/05/26 02:07:42;;;;;;;10.07;7.83;;;11.20;99.90;;;-141.84;74.11;20025.22;5033254;28;20218;-74
2023/05/26 02:10:11;;;;;;;10.53;8.37;;;11.20;99.90;;;-141.84;73.45;19998.78;5033635;28;20213;-77
2023/05/26 02:12:39;;;;;;;12.37;7.77;;;11.20;99.90;;;-141.84;73.09;19992.69;5033523;28;20216;-76
2023/05/26 02:15:09;;;;;;;8.53;7.63;;;11.30;99.90;;;-141.84;73.46;20033.34;5033359;28;20202;-75
2023/05/26 02:17:40;;;;;;;11.87;8.57;;;11.30;99.90;;;-141.84;72.18;20041.47;5033293;28;20232;-77
2023/05/26 02:20:09;;;;;;;13.17;8.77;;;11.40;99.90;;;-141.84;72.74;20053.66;5033824;28;20190;-76
2023/05/26 02:22:38;;;;;;;13.47;8.97;;;11.40;99.90;;;-141.84;72.04;20065.84;5033703;28;20202;-75
2023/05/26 02:25:07;;;;;;;13.23;9.03;;;11.40;99.90;;;-141.84;71.71;20019.13;5033495;28;20300;-78
2023/05/26 02:27:36;;;;;;;13.80;9.43;;;11.40;99.90;;;-141.84;71.18;20069.94;5033806;28;20217;-76
2023/05/26 02:30:06;;;;;;;12.97;9.17;;;11.40;99.90;;;-141.84;71.31;20025.22;5033212;28;20210;-74
2023/05/26 02:32:34;;;;;;;12.53;9.07;;;11.40;99.90;;;-141.84;71.32;20027.25;5034721;28;20233;-75
2023/05/26 02:35:05;;;;;;;11.87;8.83;;;11.30;99.90;;;-141.84;71.83;20025.22;5033774;28;20198;-75
2023/05/26 02:37:34;;;;;;;12.53;9.10;;;11.30;99.90;;;-141.84;71.62;20006.91;5033812;28;20260;-75
2023/05/26 02:40:02;;;;;;;12.20;8.63;;;11.20;99.90;;;-141.84;72.12;19992.69;5034282;28;20266;-75
2023/05/26 02:42:33;;;;;;;12.53;9.67;;;11.10;99.90;;;-141.84;72.82;20017.09;5034653;28;20206;-77
2023/05/26 02:45:02;;;;;;;10.50;8.87;;;11.00;99.90;;;-141.84;72.78;19970.34;5034084;28;20233;-75
2023/05/26 02:47:30;;;;;;;12.70;9.30;;;11.00;99.90;;;-141.84;72.96;19968.31;5034348;28;20202;-77
2023/05/26 02:49:58;;;;;;;13.33;9.67;;;10.90;99.90;;;-141.84;73.57;19945.94;5034619;28;20209;-77
2023/05/26 02:52:28;;;;;;;11.47;9.10;;;10.80;99.90;;;-141.84;73.33;19958.13;5033611;28;20596;-75
2023/05/26 02:54:56;;;;;;;12.97;9.10;;;10.70;99.90;;;-141.84;74.12;19941.88;5014802;28;20204;-77
2023/05/26 02:57:24;;;;;;;16.87;9.80;;;10.60;99.90;;;-141.84;74.50;19927.66;5033935;28;20257;-76
2023/05/26 02:59:52;;;;;;;14.53;9.83;;;10.60;99.90;;;-141.84;74.01;19952.03;5033642;28;20673;-76
2023/05/26 03:02:21;;;;;;;14.07;10.17;;;10.60;99.90;;;-141.84;74.33;19903.25;5034332;28;20202;-76
2023/05/26 03:04:50;;;;;;;13.77;9.37;;;10.50;99.90;;;-141.84;74.20;19901.22;5032761;28;20205;-75
2023/05/26 03:07:18;;;;;;;12.57;9.87;;;10.40;99.90;;;-141.84;73.89;19937.81;5036237;28;20262;-77
2023/05/26 03:09:48;;;;;;;16.37;9.67;;;10.40;99.90;;;-141.84;74.57;19893.09;5042551;28;20261;-75
2023/05/26 03:12:16;;;;;;;12.83;9.00;;;10.30;99.90;;;-141.84;75.40;19882.94;5039551;28;20292;-75
2023/05/26 03:14:44;;;;;;;11.30;9.43;;;10.20;99.90;;;-141.84;75.05;19878.88;5036907;28;20234;-76
2023/05/26 03:17:13;;;;;;;13.90;9.83;;;10.20;99.90;;;-141.84;74.87;19909.34;5034256;28;20321;-76
2023/05/26 03:19:41;;;;;;;15.20;9.97;;;10.20;99.90;;;-141.84;74.86;19860.59;5034446;28;20297;-75
2023/05/26 03:22:10;;;;;;;16.03;10.13;;;10.20;99.90;;;-141.84;74.94;19909.34;5033411;28;20286;-77
2023/05/26 03:24:59;;;;;;;14.13;10.67;;;10.10;99.90;;;-141.84;75.38;19862.63;5031150;28;20201;-76
2023/05/26 03:27:27;;;;;;;16.63;9.80;;;10.10;99.90;;;-141.84;74.73;19899.19;5033570;28;20296;-76
2023/05/26 03:29:56;;;;;;;17.40;9.97;;;10.10;99.90;;;-141.84;75.23;19870.75;5032721;28;20277;-76
2023/05/26 03:32:24;;;;;;;13.23;9.33;;;10.10;99.90;;;-141.84;74.81;19895.13;5032840;28;20237;-75
2023/05/26 03:34:52;;;;;;;15.40;9.57;;;10.10;99.90;;;-141.84;75.60;19895.13;5033081;28;20195;-75
2023/05/26 03:37:20;;;;;;;14.43;10.87;;;10.00;99.90;;;-141.84;74.95;19919.53;5032557;28;20218;-75
2023/05/26 03:39:49;;;;;;;13.50;9.20;;;10.10;99.90;;;-141.84;75.56;19887.00;5032559;28;20237;-76
2023/05/26 03:42:18;;;;;;;16.73;10.07;;;10.10;99.90;;;-141.84;75.29;19878.88;5032630;28;20682;-76
2023/05/26 03:44:46;;;;;;;14.97;9.70;;;10.10;99.90;;;-141.84;74.33;19901.22;5031321;28;20773;-75
2023/05/26 03:47:15;;;;;;;13.00;9.80;;;10.10;99.90;;;-141.84;74.59;19887.00;5032720;28;20198;-75
2023/05/26 03:49:43;;;;;;;15.30;9.57;;;10.10;99.90;;;-141.84;75.08;19836.19;5033188;28;20205;-74
2023/05/26 03:52:11;;;;;;;13.53;9.00;;;10.10;99.90;;;-141.84;75.16;19882.94;5033120;28;20204;-76
2023/05/26 03:54:39;;;;;;;16.47;9.50;;;10.10;99.90;;;-141.84;74.55;19891.06;5033049;28;20248;-76
2023/05/26 03:57:07;;;;;;;13.37;8.57;;;10.10;99.90;;;-141.84;73.84;19893.09;5032557;28;20650;-76
2023/05/26 03:59:37;;;;;;;14.73;8.90;;;10.10;99.90;;;-141.84;74.66;19891.06;5032991;28;20286;-76
2023/05/26 04:02:06;;;;;;;12.77;9.00;;;10.20;99.90;;;-141.84;73.91;19919.53;5033287;28;20624;-75
2023/05/26 04:04:34;;;;;;;13.80;9.17;;;10.20;99.90;;;-141.84;74.42;19878.88;5033145;28;20209;-78
2023/05/26 04:07:04;;;;;;;14.80;9.03;;;10.20;99.90;;;-141.84;73.82;19901.22;5032833;28;20205;-76
2023/05/26 04:09:33;;;;;;;13.20;9.10;;;10.20;99.90;;;-141.84;74.09;19929.69;5033326;28;20199;-75
2023/05/26 04:12:02;;;;;;;16.63;8.97;;;10.30;99.90;;;-141.84;73.95;19931.72;5032552;28;20264;-76
2023/05/26 04:14:30;;;;;;;16.00;9.03;;;10.30;99.90;;;-141.84;74.06;19945.94;5033086;28;20290;-75
2023/05/26 04:16:59;;;;;;;13.37;8.47;;;10.40;99.90;;;-141.84;73.70;19909.34;5032789;28;20670;-78
2023/05/26 04:19:28;;;;;;;12.33;8.13;;;10.50;99.90;;;-141.84;72.73;19937.81;5032377;28;20310;-75
2023/05/26 04:21:56;;;;;;;14.30;8.73;;;10.50;99.90;;;-141.84;72.31;19960.16;5032587;28;20292;-74
2023/05/26 04:24:26;;;;;;;15.07;8.47;;;10.60;99.90;;;-141.84;72.22;19927.66;5032211;28;20206;-76
2023/05/26 04:26:55;;;;;;;14.30;8.30;;;10.70;99.90;;;-141.84;72.80;19917.50;5032528;28;20210;-75
2023/05/26 04:29:23;;;;;;;11.70;8.50;;;10.70;99.90;;;-141.84;71.80;19976.44;5032917;28;20202;-76
2023/05/26 04:31:51;;;;;;;12.07;7.60;;;10.80;99.90;;;-141.84;71.97;19982.53;5033453;28;20284;-75
2023/05/26 04:34:21;;;;;;;13.20;7.70;;;10.90;99.90;;;-141.84;71.00;19998.78;5037066;28;20299;-76
2023/05/26 04:36:49;;;;;;;12.57;8.50;;;11.10;99.90;;;-141.84;70.56;20023.19;5032557;28;20202;-76
2023/05/26 04:39:17;;;;;;;14.03;9.03;;;11.00;99.90;;;-141.84;70.31;20002.84;5032586;28;20320;-77
2023/05/26 04:41:46;;;;;;;15.03;9.10;;;11.10;99.90;;;-141.84;69.47;20029.28;5032972;28;20205;-74
2023/05/26 04:44:14;;;;;;;14.43;8.33;;;11.20;99.90;;;-141.84;69.38;20061.78;5033217;28;20231;-75
2023/05/26 04:46:44;;;;;;;14.50;7.90;;;11.20;99.90;;;-141.84;68.87;20067.88;5032886;28;20688;-77
2023/05/26 04:49:12;;;;;;;13.23;8.17;;;11.40;99.90;;;-141.84;68.41;20120.75;5032810;28;20316;-77
2023/05/26 04:51:42;;;;;;;11.40;8.33;;;11.60;99.90;;;-141.84;66.33;20305.69;5033058;28;20680;-76
2023/05/26 04:54:10;;;;;;;10.83;7.43;;;12.30;99.90;;;-141.84;60.75;20500.84;5032532;28;20190;-76
2023/05/26 04:56:39;;;;;;;11.20;7.47;;;13.10;99.90;;;-141.84;55.38;20712.25;5013791;28;20293;-76
2023/05/26 04:59:07;;;;;;;11.48;6.65;;;14.20;99.90;;;-141.84;52.99;20866.75;5033005;28;20308;-73
2023/05/26 05:01:35;;;;;;;9.45;6.93;;;15.20;99.90;;;-141.84;51.15;21029.38;5032198;28;20297;-74
2023/05/26 05:04:03;;;;;;;9.23;6.55;;;15.70;99.90;;;-141.84;49.74;21126.97;5033498;28;20248;-77
2023/05/26 05:06:32;;;;;;;13.88;6.82;;;16.30;99.90;;;-141.84;48.37;21196.09;5033270;28;20670;-75
2023/05/26 05:09:02;;;;;;;11.38;6.07;;;16.80;99.90;;;-141.84;48.07;21240.81;5031615;28;20777;-75
2023/05/26 05:11:30;;;;;;;12.38;6.50;;;17.20;99.90;;;-141.84;47.17;21240.81;5032476;28;20186;-75
2023/05/26 05:13:59;;;;;;;11.63;6.38;;;17.30;99.90;;;-141.84;47.27;21320.09;5032817;28;20285;-76
2023/05/26 05:16:27;;;;;;;10.25;6.15;;;17.20;99.90;;;-141.84;46.39;21399.41;5032043;28;20297;-76
2023/05/26 05:18:55;;;;;;;9.63;6.32;;;17.40;99.90;;;-141.84;47.42;21277.41;5032852;28;20325;-75
2023/05/26 05:21:23;;;;;;;9.73;6.07;;;17.60;99.90;;;-141.84;46.93;21289.59;5032843;28;20253;-75
2023/05/26 05:23:52;;;;;;;10.80;6.05;;;17.50;99.90;;;-141.84;48.43;21118.84;5031992;28;20206;-76
2023/05/26 05:26:22;;;;;;;13.85;6.80;;;17.20;99.90;;;-141.84;49.05;21116.78;5031758;28;20289;-75
2023/05/26 05:28:50;;;;;;;16.38;6.68;;;16.80;99.90;;;-141.84;49.82;21045.63;5032372;28;20183;-76
2023/05/26 05:31:18;;;;;;;11.77;6.60;;;16.40;99.90;;;-141.84;51.35;20954.16;5031435;28;20245;-76
2023/05/26 05:33:47;;;;;;;11.35;6.35;;;16.30;99.90;;;-141.84;52.89;20868.78;5032684;28;20561;-78
2023/05/26 05:36:15;;;;;;;14.57;7.63;;;16.00;99.90;;;-141.84;54.46;20756.97;5032251;28;20289;-76
2023/05/26 05:38:44;;;;;;;11.27;6.88;;;15.60;99.90;;;-141.84;55.73;20679.72;5032327;28;20257;-75
2023/05/26 05:41:14;;;;;;;10.23;6.47;;;15.40;99.90;;;-141.84;56.82;20616.69;5031980;28;20282;-76
2023/05/26 05:43:43;;;;;;;11.55;6.20;;;15.20;99.90;;;-141.84;57.56;20592.31;5032326;28;20232;-75
2023/05/26 05:46:11;;;;;;;10.73;6.82;;;14.90;99.90;;;-141.84;59.10;20517.09;5030296;28;20293;-73
2023/05/26 05:48:42;;;;;;;11.73;6.70;;;14.50;99.90;;;-141.84;59.33;20519.13;5030569;28;20194;-76
2023/05/26 05:51:10;;;;;;;9.50;6.47;;;14.30;99.90;;;-141.84;59.57;20508.97;5030253;28;20281;-77
2023/05/26 05:53:38;;;;;;;11.83;6.40;;;14.40;99.90;;;-141.84;58.50;20639.06;5030757;28;20226;-76
2023/05/26 05:56:07;;;;;;;15.67;7.10;;;14.60;99.90;;;-141.84;57.70;20614.66;5031213;28;20281;-75
2023/05/26 05:58:35;;;;;;;13.40;6.80;;;14.80;99.90;;;-141.84;57.46;20626.88;5031187;28;20254;-76
2023/05/26 06:01:04;;;;;;;13.77;6.43;;;15.00;99.90;;;-141.84;57.14;20675.66;5030730;28;20293;-75
2023/05/26 06:03:32;;;;;;;17.20;6.20;;;15.10;99.90;;;-141.84;56.65;20647.19;5030586;28;20301;-76
2023/05/26 06:06:01;;;;;;;16.25;6.78;;;15.20;99.90;;;-141.84;57.12;20612.63;5030202;28;20272;-75
2023/05/26 06:08:29;;;;;;;13.00;6.47;;;15.00;99.90;;;-141.84;57.41;20574.00;5032536;28;20198;-75
2023/05/26 06:10:57;;;;;;;15.45;6.35;;;15.00;99.90;;;-141.84;58.03;20569.94;5033918;28;20711;-74
2023/05/26 06:13:25;;;;;;;13.98;6.30;;;14.80;99.90;;;-141.84;57.78;20598.41;5034187;28;20285;-75
2023/05/26 06:15:53;;;;;;;12.93;6.68;;;14.70;99.90;;;-141.84;57.48;20598.41;5034613;28;20212;-75
2023/05/26 06:18:23;;;;;;;15.30;6.73;;;14.80;99.90;;;-141.84;57.28;20578.09;5034511;28;20293;-74
2023/05/26 06:20:51;;;;;;;11.77;6.43;;;14.80;99.90;;;-141.84;57.92;20567.91;5034560;28;20269;-73
2023/05/26 06:23:20;;;;;;;13.30;6.40;;;14.70;99.90;;;-141.84;57.55;20580.13;5034466;28;20240;-74
2023/05/26 06:25:48;;;;;;;13.20;7.03;;;14.80;99.90;;;-141.84;57.07;20643.13;5033576;28;20519;-76
2023/05/26 06:28:16;;;;;;;15.98;6.95;;;14.90;99.90;;;-141.84;56.90;20606.53;5033748;28;20205;-74
2023/05/26 06:30:45;;;;;;;16.00;6.65;;;14.90;99.90;;;-141.84;58.01;20596.38;5033762;28;20214;-75
2023/05/26 06:33:13;;;;;;;16.95;7.10;;;14.80;99.90;;;-141.84;58.40;20574.00;5033439;28;20726;-74
2023/05/26 06:35:43;;;;;;;15.52;7.38;;;14.70;99.90;;;-141.84;58.30;20590.28;5034030;28;20598;-75
2023/05/26 06:38:11;;;;;;;12.53;6.97;;;14.70;99.90;;;-141.84;57.90;20618.72;5034722;28;20202;-76
2023/05/26 06:40:39;;;;;;;12.43;6.32;;;14.80;99.90;;;-141.84;57.87;20586.22;5033513;28;20218;-74
2023/05/26 06:43:07;;;;;;;12.15;6.57;;;14.80;99.90;;;-141.84;58.07;20598.41;5033482;28;20285;-76
2023/05/26 06:45:35;;;;;;;13.32;6.35;;;14.90;99.90;;;-141.84;57.70;20626.88;5032666;28;20719;-75
2023/05/26 06:48:04;;;;;;;14.57;6.67;;;14.90;99.90;;;-141.84;57.62;20659.38;5032881;28;20304;-75
2023/05/26 06:50:32;;;;;;;13.85;6.75;;;15.00;99.90;;;-141.84;56.42;20679.72;5033135;28;20204;-75
2023/05/26 06:53:02;;;;;;;15.25;6.55;;;15.20;99.90;;;-141.84;55.93;20765.09;5032529;28;20293;-76
2023/05/26 06:55:30;;;;;;;14.45;6.10;;;15.40;99.90;;;-141.84;55.01;20842.34;5037899;28;20202;-75
2023/05/26 06:57:58;;;;;;;16.02;5.97;;;15.70;99.90;;;-141.84;54.08;20864.72;5036594;28;20767;-75
2023/05/26 07:00:26;;;;;;;12.35;5.85;;;16.00;99.90;;;-141.84;52.78;20992.78;5034822;28;20230;-77
2023/05/26 07:02:55;;;;;;;12.85;6.10;;;16.50;99.90;;;-141.84;51.85;20996.84;5032713;28;20259;-76
2023/05/26 07:05:23;;;;;;;14.23;6.75;;;16.80;99.90;;;-141.84;52.14;20978.56;5032829;28;20210;-75
2023/05/26 07:07:51;;;;;;;16.38;6.35;;;16.80;99.90;;;-141.84;51.21;21039.53;5032467;28;20332;-75
2023/05/26 07:10:21;;;;;;;17.08;6.70;;;17.00;99.90;;;-141.84;50.49;21053.78;5032538;28;20289;-76
2023/05/26 07:12:49;;;;;;;18.45;9.07;;;17.00;99.90;;;-141.84;51.01;21017.19;5029944;28;20202;-76
2023/05/26 07:15:17;;;;;;;17.80;7.50;;;16.90;99.90;;;-141.84;51.43;20998.88;5032141;28;20589;-77
2023/05/26 07:17:45;;;;;;;14.35;6.38;;;16.80;99.90;;;-141.84;52.10;20984.66;5031841;28;20252;-76
2023/05/26 07:20:13;;;;;;;15.63;6.60;;;16.80;99.90;;;-141.84;51.04;21041.56;5032162;28;20279;-75
2023/05/26 07:22:41;;;;;;;14.27;6.35;;;17.00;99.90;;;-141.84;51.50;20982.63;5031916;28;20204;-77
2023/05/26 07:25:10;;;;;;;12.05;6.10;;;17.00;99.90;;;-141.84;51.38;20990.75;5031925;28;20712;-76
2023/05/26 07:27:39;;;;;;;14.32;6.13;;;17.00;99.90;;;-141.84;51.94;20970.41;5031811;28;20651;-74
2023/05/26 07:30:09;;;;;;;12.77;6.25;;;16.80;99.90;;;-141.84;52.31;20960.25;5031565;28;20208;-76
2023/05/26 07:32:37;;;;;;;15.65;6.65;;;16.70;99.90;;;-141.84;52.82;20954.16;5031222;28;20737;-76
2023/05/26 07:35:06;;;;;;;13.30;6.20;;;16.60;99.90;;;-141.84;53.29;20935.88;5031730;28;20198;-77
2023/05/26 07:37:35;;;;;;;16.00;7.18;;;16.60;99.90;;;-141.84;53.12;20974.50;5032054;28;20202;-74
2023/05/26 07:40:04;;;;;;;19.80;7.07;;;16.70;99.90;;;-141.84;53.23;20931.78;5031653;28;20702;-76
2023/05/26 07:42:33;;;;;;;13.38;6.03;;;16.60;99.90;;;-141.84;53.13;20935.88;5028219;28;20740;-71
2023/05/26 07:45:03;;;;;;;15.93;6.00;;;16.60;99.90;;;-141.84;52.51;20958.22;5030206;28;20321;-72
2023/05/26 07:47:31;;;;;;;12.60;6.38;;;16.70;99.90;;;-141.84;52.30;21002.94;5031307;28;20226;-70
2023/05/26 07:50:00;;;;;;;17.58;6.57;;;16.80;99.90;;;-141.84;52.30;20966.34;5031051;28;20293;-72
2023/05/26 07:52:28;;;;;;;14.35;5.95;;;16.70;99.90;;;-141.84;51.32;20968.38;5032263;28;20650;-68
2023/05/26 07:54:56;;;;;;;15.32;6.18;;;16.80;99.90;;;-141.84;51.24;20958.22;5031228;28;20198;-74
2023/05/26 07:57:25;;;;;;;12.75;6.25;;;16.60;99.90;;;-141.84;52.48;20939.94;5030905;28;20730;-74
2023/05/26 07:59:57;;;;;;;12.13;5.57;;;16.50;99.90;;;-141.84;51.97;20972.47;5030785;28;20253;-69
2023/05/26 08:02:27;;;;;;;16.25;6.93;;;16.60;99.90;;;-141.84;51.17;21013.13;5030737;28;20677;-68
2023/05/26 08:04:56;;;;;;;14.88;7.05;;;16.90;99.90;;;-141.84;49.95;21090.38;5031191;28;20201;-69
2023/05/26 08:07:24;;;;;;;12.15;5.68;;;17.10;99.90;;;-141.84;49.32;21027.34;5030838;28;20255;-67
2023/05/26 08:09:53;;;;;;;13.25;5.65;;;17.20;99.90;;;-141.84;50.38;21025.31;5030938;28;20289;-68
2023/05/26 08:12:21;;;;;;;16.38;6.55;;;17.20;99.90;;;-141.84;51.21;20994.81;5030355;28;20289;-67
2023/05/26 08:14:49;;;;;;;13.30;6.10;;;17.10;99.90;;;-141.84;52.11;20956.19;5030400;28;20293;-68
2023/05/26 08:17:18;;;;;;;13.63;6.97;;;16.90;99.90;;;-141.84;52.04;20978.56;5030413;28;20198;-67
2023/05/26 08:19:47;;;;;;;15.38;7.10;;;16.80;99.90;;;-141.84;52.54;20931.78;5030319;28;20720;-69
2023/05/26 08:22:15;;;;;;;12.48;5.90;;;16.70;99.90;;;-141.84;52.77;20923.66;5030550;28;20300;-69
2023/05/26 08:24:44;;;;;;;15.27;7.70;;;16.70;99.90;;;-141.84;52.90;20911.47;5030624;28;20206;-68
2023/05/26 08:27:12;;;;;;;15.13;6.30;;;16.70;99.90;;;-141.84;52.75;20931.78;5030605;28;20290;-69
2023/05/26 08:29:40;;;;;;;12.35;6.30;;;16.60;99.90;;;-141.84;52.35;20944.00;5029847;28;20206;-69
2023/05/26 08:32:08;;;;;;;15.32;6.15;;;16.70;99.90;;;-141.84;51.66;20935.88;5030528;28;20206;-68
2023/05/26 08:34:36;;;;;;;12.60;4.95;;;16.70;99.90;;;-141.84;51.72;20935.88;5030855;28;20201;-84
2023/05/26 08:37:05;;;;;;;10.25;4.90;;;16.70;99.90;;;-141.84;51.08;20946.03;5030731;28;20209;-79
2023/05/26 08:39:33;;;;;;;10.68;5.10;;;16.70;99.90;;;-141.84;50.95;20974.50;5035840;28;20206;-68
2023/05/26 08:42:06;;;;;;;14.85;5.80;;;16.70;99.90;;;-141.84;50.81;20952.13;5030858;28;20208;-68
2023/05/26 08:44:35;;;;;;;13.57;5.03;;;16.70;99.90;;;-141.84;51.07;20944.00;5029959;28;20657;-69
2023/05/26 08:47:04;;;;;;;12.80;5.32;;;16.80;99.90;;;-141.84;50.95;20935.88;5029927;28;20578;-65
2023/05/26 08:49:37;;;;;;;12.18;4.68;;;16.90;99.90;;;-141.84;50.85;20966.34;5027802;28;20206;-66
2023/05/26 08:52:12;;;;;;;12.48;5.45;;;16.90;99.90;;;-141.84;50.62;21013.13;5040551;28;20307;-68
2023/05/26 08:54:41;;;;;;;13.73;5.43;;;17.00;99.90;;;-141.84;50.69;20982.63;5068101;28;20192;-68
2023/05/26 08:57:12;;;;;;;13.05;4.97;;;17.00;99.90;;;-141.84;50.69;21000.91;5068512;28;20247;-68
2023/05/26 08:59:41;;;;;;;14.45;5.18;;;17.10;99.90;;;-141.84;49.17;21047.69;5061523;28;20205;-68
2023/05/26 09:02:10;;;;;;;11.57;4.55;;;17.20;99.90;;;-141.84;49.48;21017.19;5068626;28;20383;-68
2023/05/26 09:04:38;;;;;;;10.77;4.90;;;17.20;99.90;;;-141.84;49.28;21076.13;5068834;28;20207;-67
2023/05/26 09:07:09;;;;;;;11.15;4.55;;;17.30;99.90;;;-141.84;49.42;21094.44;5066222;28;20223;-68
2023/05/26 09:09:53;;;;;;;11.93;4.82;;;17.30;99.90;;;-141.84;48.07;21102.56;5067947;28;20200;-70
2023/05/26 09:12:22;;;;;;;10.70;4.85;;;17.50;99.90;;;-141.84;47.57;21179.81;5068750;28;20196;-65
2023/05/26 09:14:50;;;;;;;14.25;4.60;;;17.70;99.90;;;-141.84;48.08;21122.91;5060552;28;20509;-65
2023/05/26 09:17:19;;;;;;;13.52;5.07;;;17.60;99.90;;;-141.84;47.86;21173.72;5068335;28;20412;-66
2023/05/26 09:19:47;;;;;;;11.27;4.80;;;17.80;99.90;;;-141.84;48.43;21112.72;5068010;28;20197;-65
2023/05/26 09:22:22;;;;;;;13.35;4.90;;;17.90;99.90;;;-141.84;47.61;21179.81;5067826;28;20244;-66
2023/05/26 09:24:51;;;;;;;13.20;4.78;;;17.90;99.90;;;-141.84;48.19;21173.72;5068203;28;20192;-64
2023/05/26 09:27:21;;;;;;;12.88;5.20;;;17.80;99.90;;;-141.84;47.99;21098.50;5074554;28;20201;-72
2023/05/26 09:29:55;;;;;;;11.88;4.53;;;17.80;99.90;;;-141.84;48.44;21135.09;5067843;28;20695;-65
2023/05/26 09:32:26;;;;;;;10.25;4.95;;;17.70;99.90;;;-141.84;48.38;21129.00;5068243;28;20192;-69
2023/05/26 09:34:57;;;;;;;10.93;4.82;;;17.70;99.90;;;-141.84;47.46;21153.41;5068075;28;20193;-69
2023/05/26 09:37:31;;;;;;;15.07;5.20;;;17.80;99.90;;;-141.84;47.25;21220.47;5068454;28;20193;-68
2023/05/26 09:40:09;;;;;;;15.20;5.45;;;18.10;99.90;;;-141.84;47.44;21248.94;5067104;28;20200;-68
2023/05/26 09:42:38;;;;;;;12.80;4.97;;;18.00;99.90;;;-141.84;47.37;21202.19;5069285;28;20288;-67
2023/05/26 09:45:07;;;;;;;13.00;5.40;;;18.10;99.90;;;-141.84;47.59;21216.41;5071815;28;20201;-67
2023/05/26 09:47:35;;;;;;;13.02;5.07;;;18.20;99.90;;;-141.84;47.26;21287.56;5072006;28;20197;-67
2023/05/26 09:50:05;;;;;;;12.63;5.15;;;18.30;99.90;;;-141.84;46.92;21316.03;5071652;28;20250;-67
2023/05/26 09:52:37;;;;;;;16.38;5.60;;;18.30;99.90;;;-141.84;46.93;21285.53;5072061;28;20284;-66
2023/05/26 09:55:07;;;;;;;12.43;4.72;;;18.40;99.90;;;-141.84;47.05;21214.38;5071264;28;20193;-64
2023/05/26 09:57:38;;;;;;;16.17;5.50;;;18.30;99.90;;;-141.84;46.96;21228.63;5070091;28;20243;-64
2023/05/26 10:00:10;;;;;;;15.13;5.60;;;18.30;99.90;;;-141.84;47.00;21196.09;5071982;28;20193;-65
2023/05/26 10:02:40;;;;;;;14.18;5.68;;;18.20;99.90;;;-141.84;46.46;21238.78;5071903;28;20635;-65
2023/05/26 10:05:09;;;;;;;14.23;5.07;;;18.20;99.90;;;-141.84;46.38;21265.22;5071181;28;20332;-70
2023/05/26 10:07:42;;;;;;;15.18;5.05;;;18.30;99.90;;;-141.84;46.60;21202.19;5070331;28;20232;-66
2023/05/26 10:10:14;;;;;;;15.38;5.38;;;18.30;99.90;;;-141.84;46.85;21228.63;5071436;28;20203;-66